Time;durP1;ratioP1;P1;durP2;ratioP2;P2;SDS_P1;SDS_P2;PMS_P1;PMS_P2;Temp;Humidity;BMP_temperature;BMP_pressure;BME280_temperature;BME280_humidity;BME280_pressure;Samples;Min_cycle;Max_cycle;Signal;HPM_P1;HPM_P2
2021/03/19 00:01:37;;;;;;;112.07;104.47;;;;;;;;;;4994437;28;20034;-79
2021/03/19 00:04:03;;;;;;;112.22;104.63;;;;;;;;;;4992582;28;20042;-79
2021/03/19 00:06:28;;;;;;;114.22;106.43;;;;;;;;;;4994401;28;20038;-79
2021/03/19 00:08:53;;;;;;;112.22;104.30;;;;;;;;;;4995433;28;20030;-78
2021/03/19 00:11:19;;;;;;;112.55;104.93;;;;;;;;;;5004723;28;20552;-80
2021/03/19 00:13:44;;;;;;;112.00;104.43;;;;;;;;;;4999245;28;20485;-79
2021/03/19 00:16:10;;;;;;;115.82;107.70;;;;;;;;;;4995183;28;20042;-79
2021/03/19 00:18:36;;;;;;;115.57;107.38;;;;;;;;;;4995762;28;20041;-78
2021/03/19 00:21:02;;;;;;;114.22;106.45;;;;;;;;;;5005990;28;20046;-80
2021/03/19 00:23:27;;;;;;;114.20;106.18;;;;;;;;;;4999503;28;20062;-79
2021/03/19 00:25:54;;;;;;;117.15;109.03;;;;;;;;;;4995150;28;20117;-78
2021/03/19 00:28:19;;;;;;;118.30;110.05;;;;;;;;;;4999720;28;20041;-79
2021/03/19 00:30:45;;;;;;;119.80;111.53;;;;;;;;;;5009707;28;20034;-78
2021/03/19 00:33:11;;;;;;;114.68;106.82;;;;;;;;;;5005064;28;20025;-78
2021/03/19 00:35:36;;;;;;;116.18;107.95;;;;;;;;;;4994898;28;20105;-78
2021/03/19 00:38:03;;;;;;;118.18;110.03;;;;;;;;;;4996060;28;20047;-78
2021/03/19 00:40:28;;;;;;;118.22;109.90;;;;;;;;;;4995784;28;20019;-78
2021/03/19 00:42:54;;;;;;;117.63;109.32;;;;;;;;;;4996731;28;20121;-78
2021/03/19 00:45:20;;;;;;;119.13;110.70;;;;;;;;;;4998908;28;20026;-78
2021/03/19 00:47:46;;;;;;;121.80;112.95;;;;;;;;;;4995772;28;20133;-79
2021/03/19 00:50:14;;;;;;;119.95;111.55;;;;;;;;;;4999588;28;20085;-78
2021/03/19 00:52:39;;;;;;;124.55;115.70;;;;;;;;;;4994294;28;20036;-78
2021/03/19 00:55:06;;;;;;;123.30;114.47;;;;;;;;;;4999822;28;20665;-78
2021/03/19 00:57:32;;;;;;;122.55;113.68;;;;;;;;;;4993889;28;20030;-78
2021/03/19 00:59:57;;;;;;;125.10;116.10;;;;;;;;;;5009933;28;20322;-77
2021/03/19 01:02:23;;;;;;;127.63;118.38;;;;;;;;;;4997984;28;20034;-78
2021/03/19 01:04:48;;;;;;;129.00;119.35;;;;;;;;;;5004170;28;20030;-78
2021/03/19 01:07:14;;;;;;;126.80;117.70;;;;;;;;;;5008489;28;20117;-77
2021/03/19 01:09:40;;;;;;;131.40;121.88;;;;;;;;;;5000158;28;20092;-78
2021/03/19 01:12:05;;;;;;;123.20;114.28;;;;;;;;;;4997770;28;20038;-77
2021/03/19 01:14:31;;;;;;;132.13;122.13;;;;;;;;;;5001673;28;20534;-78
2021/03/19 01:16:56;;;;;;;125.65;116.68;;;;;;;;;;4999571;28;20034;-78
2021/03/19 01:19:21;;;;;;;124.97;115.97;;;;;;;;;;4996546;28;20404;-78
2021/03/19 01:21:47;;;;;;;132.07;122.40;;;;;;;;;;4994317;28;20026;-78
2021/03/19 01:24:12;;;;;;;133.02;123.13;;;;;;;;;;4997394;28;20483;-78
2021/03/19 01:26:38;;;;;;;130.27;120.70;;;;;;;;;;4996827;28;20049;-78
2021/03/19 01:29:05;;;;;;;127.47;117.88;;;;;;;;;;5001047;28;20018;-78
2021/03/19 01:31:30;;;;;;;135.45;125.45;;;;;;;;;;5005870;28;20184;-77
2021/03/19 01:33:55;;;;;;;136.50;126.40;;;;;;;;;;5000998;28;20054;-77
2021/03/19 01:36:21;;;;;;;128.10;118.65;;;;;;;;;;4994352;28;20508;-78
2021/03/19 01:38:46;;;;;;;135.52;125.28;;;;;;;;;;4999622;28;20054;-79
2021/03/19 01:41:12;;;;;;;140.93;130.20;;;;;;;;;;5003936;28;20033;-79
2021/03/19 01:43:43;;;;;;;139.52;128.80;;;;;;;;;;5000118;28;20029;-79
2021/03/19 01:46:32;;;;;;;139.60;128.25;;;;;;;;;;5002692;28;20045;-79
2021/03/19 01:49:16;;;;;;;131.85;122.05;;;;;;;;;;4996069;28;20036;-78
2021/03/19 01:52:00;;;;;;;139.88;129.25;;;;;;;;;;5001322;28;20034;-77
2021/03/19 01:54:45;;;;;;;145.68;134.43;;;;;;;;;;4996722;28;20049;-77
2021/03/19 01:57:28;;;;;;;133.27;123.25;;;;;;;;;;4994120;28;20036;-77
2021/03/19 02:00:13;;;;;;;136.27;125.60;;;;;;;;;;4993607;28;20034;-78
2021/03/19 02:02:57;;;;;;;144.07;132.85;;;;;;;;;;4992026;28;20033;-77
2021/03/19 02:05:42;;;;;;;153.75;142.07;;;;;;;;;;4996844;28;20046;-78
2021/03/19 02:08:26;;;;;;;148.90;137.35;;;;;;;;;;5004967;28;20061;-78
2021/03/19 02:11:11;;;;;;;141.02;130.23;;;;;;;;;;4993548;28;20038;-78
2021/03/19 02:13:55;;;;;;;144.63;132.93;;;;;;;;;;4996966;28;20050;-79
2021/03/19 02:16:39;;;;;;;147.70;136.43;;;;;;;;;;4993121;28;20037;-79
2021/03/19 02:19:23;;;;;;;147.93;136.50;;;;;;;;;;4991610;28;20046;-79
2021/03/19 02:22:07;;;;;;;149.93;138.02;;;;;;;;;;4992782;28;20044;-79
2021/03/19 02:24:51;;;;;;;150.45;138.25;;;;;;;;;;4992238;28;20037;-79
2021/03/19 02:27:35;;;;;;;144.85;133.60;;;;;;;;;;5006472;28;20069;-79
2021/03/19 02:30:19;;;;;;;147.10;135.23;;;;;;;;;;4995172;28;20034;-79
2021/03/19 02:32:45;;;;;;;146.43;134.93;;;;;;;;;;4996095;28;20121;-79
2021/03/19 02:35:21;;;;;;;150.18;138.18;;;;;;;;;;4999702;28;20157;-78
2021/03/19 02:37:46;;;;;;;151.90;139.73;;;;;;;;;;5007900;28;20037;-77
2021/03/19 02:40:21;;;;;;;155.45;142.88;;;;;;;;;;4989878;28;20030;-79
2021/03/19 02:42:47;;;;;;;143.48;132.23;;;;;;;;;;4996518;28;20026;-77
2021/03/19 02:45:14;;;;;;;150.23;138.23;;;;;;;;;;4993612;28;20781;-78
2021/03/19 02:47:39;;;;;;;150.15;138.18;;;;;;;;;;4994304;28;20033;-79
2021/03/19 02:50:06;;;;;;;150.23;138.25;;;;;;;;;;4999171;28;20033;-79
2021/03/19 02:52:35;;;;;;;149.13;137.25;;;;;;;;;;4998175;28;20507;-79
2021/03/19 02:55:01;;;;;;;155.93;143.00;;;;;;;;;;4998143;28;20026;-79
2021/03/19 02:57:26;;;;;;;148.50;136.75;;;;;;;;;;4998329;28;20391;-78
2021/03/19 02:59:52;;;;;;;157.27;144.45;;;;;;;;;;4997721;28;20033;-79
2021/03/19 03:02:17;;;;;;;153.13;140.88;;;;;;;;;;4996170;28;20030;-79
2021/03/19 03:04:42;;;;;;;155.68;143.02;;;;;;;;;;4997190;28;20649;-80
2021/03/19 03:07:18;;;;;;;158.00;145.35;;;;;;;;;;5002721;28;20539;-77
2021/03/19 03:09:44;;;;;;;152.70;140.65;;;;;;;;;;4992423;28;20030;-78
2021/03/19 03:12:09;;;;;;;158.40;145.65;;;;;;;;;;5003839;28;20057;-78
2021/03/19 03:14:34;;;;;;;160.57;147.48;;;;;;;;;;4997052;28;20076;-79
2021/03/19 03:17:01;;;;;;;153.18;141.18;;;;;;;;;;4991982;28;20023;-80
2021/03/19 03:19:26;;;;;;;149.25;137.40;;;;;;;;;;4995054;28;20054;-79
2021/03/19 03:21:52;;;;;;;155.18;142.70;;;;;;;;;;4997585;28;20129;-79
2021/03/19 03:24:18;;;;;;;152.43;140.32;;;;;;;;;;4996202;28;20054;-78
2021/03/19 03:26:43;;;;;;;148.70;136.82;;;;;;;;;;4997664;28;20116;-78
2021/03/19 03:29:10;;;;;;;165.68;152.25;;;;;;;;;;5005022;28;20101;-79
2021/03/19 03:31:35;;;;;;;160.98;147.75;;;;;;;;;;4992689;28;20026;-78
2021/03/19 03:34:01;;;;;;;171.73;157.02;;;;;;;;;;5007308;28;20432;-79
2021/03/19 03:36:26;;;;;;;173.45;158.85;;;;;;;;;;4999148;28;20088;-79
2021/03/19 03:38:52;;;;;;;165.13;151.57;;;;;;;;;;5001094;28;20473;-79
2021/03/19 03:41:19;;;;;;;171.20;156.70;;;;;;;;;;5004018;28;20491;-78
2021/03/19 03:43:45;;;;;;;176.93;161.95;;;;;;;;;;5006630;28;20037;-78
2021/03/19 03:46:11;;;;;;;173.77;159.57;;;;;;;;;;5010027;28;20377;-78
2021/03/19 03:48:37;;;;;;;179.27;164.63;;;;;;;;;;5008608;28;20030;-78
2021/03/19 03:51:03;;;;;;;171.85;157.77;;;;;;;;;;5000144;28;20833;-78
2021/03/19 03:53:29;;;;;;;171.52;157.43;;;;;;;;;;5007853;28;20135;-78
2021/03/19 03:55:54;;;;;;;166.35;152.90;;;;;;;;;;5008977;28;20448;-78
2021/03/19 03:58:20;;;;;;;163.57;150.07;;;;;;;;;;5009350;28;20034;-78
2021/03/19 04:00:46;;;;;;;166.30;152.90;;;;;;;;;;5002738;28;20033;-78
2021/03/19 04:03:12;;;;;;;177.32;162.45;;;;;;;;;;5009568;28;20040;-78
2021/03/19 04:05:38;;;;;;;180.48;165.60;;;;;;;;;;5008036;28;20109;-79
2021/03/19 04:08:05;;;;;;;188.50;172.85;;;;;;;;;;5011073;28;20495;-78
2021/03/19 04:10:31;;;;;;;185.43;169.65;;;;;;;;;;5018426;28;20121;-78
2021/03/19 04:12:56;;;;;;;185.77;170.07;;;;;;;;;;5018858;28;20575;-78
2021/03/19 04:15:23;;;;;;;181.55;165.93;;;;;;;;;;5015541;28;20380;-79
2021/03/19 04:17:52;;;;;;;187.95;172.38;;;;;;;;;;5008816;28;20030;-79
2021/03/19 04:20:18;;;;;;;187.35;171.48;;;;;;;;;;5019461;28;20066;-79
2021/03/19 04:22:43;;;;;;;189.20;173.15;;;;;;;;;;5017560;28;20061;-79
2021/03/19 04:25:09;;;;;;;186.02;170.63;;;;;;;;;;5009538;28;20062;-79
2021/03/19 04:27:37;;;;;;;188.38;172.68;;;;;;;;;;5001388;28;20042;-80
2021/03/19 04:30:03;;;;;;;200.80;183.38;;;;;;;;;;4998858;28;20113;-79
2021/03/19 04:32:29;;;;;;;197.80;181.38;;;;;;;;;;5005969;28;20105;-79
2021/03/19 04:34:54;;;;;;;197.52;180.55;;;;;;;;;;5002811;28;20029;-79
2021/03/19 04:37:20;;;;;;;203.68;186.32;;;;;;;;;;5003652;28;20088;-79
2021/03/19 04:39:47;;;;;;;199.50;182.60;;;;;;;;;;5004678;28;20053;-79
2021/03/19 04:42:13;;;;;;;200.60;183.60;;;;;;;;;;5004018;28;20034;-79
2021/03/19 04:44:40;;;;;;;203.18;185.93;;;;;;;;;;5008366;28;20037;-79
2021/03/19 04:47:06;;;;;;;214.80;196.23;;;;;;;;;;5006680;28;20081;-79
2021/03/19 04:49:32;;;;;;;202.55;185.38;;;;;;;;;;5010731;28;20563;-79
2021/03/19 04:51:57;;;;;;;196.50;179.80;;;;;;;;;;5004313;28;20507;-78
2021/03/19 04:54:23;;;;;;;202.93;185.52;;;;;;;;;;5003223;28;20022;-79
2021/03/19 04:56:48;;;;;;;212.07;194.13;;;;;;;;;;5004694;28;20096;-79
2021/03/19 04:59:14;;;;;;;211.88;193.38;;;;;;;;;;5002120;28;20018;-79
2021/03/19 05:01:48;;;;;;;218.23;199.15;;;;;;;;;;5002750;28;20030;-79
2021/03/19 05:04:14;;;;;;;232.20;211.43;;;;;;;;;;5000415;28;20031;-80
2021/03/19 05:06:39;;;;;;;235.95;214.68;;;;;;;;;;5000891;28;20034;-79
2021/03/19 05:09:05;;;;;;;240.02;218.85;;;;;;;;;;5005315;28;20058;-79
2021/03/19 05:11:30;;;;;;;235.20;214.38;;;;;;;;;;5004691;28;20029;-79
2021/03/19 05:13:56;;;;;;;226.88;207.35;;;;;;;;;;5007963;28;20027;-79
2021/03/19 05:16:22;;;;;;;223.68;203.45;;;;;;;;;;5003802;28;20022;-79
2021/03/19 05:18:47;;;;;;;213.25;194.73;;;;;;;;;;5006055;28;20468;-79
2021/03/19 05:21:13;;;;;;;192.95;176.35;;;;;;;;;;5007430;28;20104;-79
2021/03/19 05:23:38;;;;;;;187.65;171.95;;;;;;;;;;5003614;28;20516;-80
2021/03/19 05:26:04;;;;;;;181.77;166.77;;;;;;;;;;5005002;28;20077;-79
2021/03/19 05:28:30;;;;;;;177.45;162.35;;;;;;;;;;5001027;28;20060;-79
2021/03/19 05:30:55;;;;;;;170.25;155.77;;;;;;;;;;5008049;28;20025;-80
2021/03/19 05:33:22;;;;;;;166.73;152.82;;;;;;;;;;5009930;28;20033;-80
2021/03/19 05:35:47;;;;;;;166.85;153.25;;;;;;;;;;5004051;28;20018;-79
2021/03/19 05:38:12;;;;;;;164.73;149.82;;;;;;;;;;5006044;28;20056;-78
2021/03/19 05:40:40;;;;;;;157.68;144.73;;;;;;;;;;5004615;28;20548;-77
2021/03/19 05:43:34;;;;;;;162.77;149.38;;;;;;;;;;5006833;28;20038;-77
2021/03/19 05:46:11;;;;;;;153.85;141.15;;;;;;;;;;5014789;28;20049;-78
2021/03/19 05:48:41;;;;;;;159.60;146.48;;;;;;;;;;5005396;28;20034;-78
2021/03/19 05:51:15;;;;;;;158.48;144.88;;;;;;;;;;5005234;28;20080;-78
2021/03/19 05:53:42;;;;;;;153.93;141.00;;;;;;;;;;5006551;28;20041;-79
2021/03/19 05:56:11;;;;;;;150.40;138.00;;;;;;;;;;5008119;28;20022;-79
2021/03/19 05:58:36;;;;;;;156.07;143.13;;;;;;;;;;5009297;28;20051;-78
2021/03/19 06:01:02;;;;;;;150.88;138.98;;;;;;;;;;5004875;28;20480;-78
2021/03/19 06:03:28;;;;;;;150.57;138.15;;;;;;;;;;4999014;28;20068;-77
2021/03/19 06:06:06;;;;;;;147.10;135.35;;;;;;;;;;5005424;28;20058;-77
2021/03/19 06:08:33;;;;;;;149.63;137.13;;;;;;;;;;4996505;28;20140;-77
2021/03/19 06:11:10;;;;;;;155.63;143.38;;;;;;;;;;4999426;28;20427;-76
2021/03/19 06:13:50;;;;;;;155.40;142.63;;;;;;;;;;5004990;28;20136;-77
2021/03/19 06:16:17;;;;;;;153.43;140.85;;;;;;;;;;5006348;28;20030;-77
2021/03/19 06:18:48;;;;;;;159.95;146.25;;;;;;;;;;4999598;28;20392;-77
2021/03/19 06:21:22;;;;;;;153.70;141.13;;;;;;;;;;5008648;28;20065;-78
2021/03/19 06:24:18;;;;;;;152.85;140.48;;;;;;;;;;5000704;28;20404;-77
2021/03/19 06:26:43;;;;;;;143.90;132.70;;;;;;;;;;5006264;28;20049;-77
2021/03/19 06:29:15;;;;;;;134.15;124.15;;;;;;;;;;5008798;28;20490;-78
2021/03/19 06:31:43;;;;;;;125.38;116.22;;;;;;;;;;5005854;28;20547;-82
2021/03/19 06:34:11;;;;;;;104.28;97.35;;;;;;;;;;5008685;28;20026;-84
2021/03/19 06:36:51;;;;;;;92.28;85.85;;;;;;;;;;5004429;28;20034;-83
2021/03/19 06:39:31;;;;;;;97.25;90.43;;;;;;;;;;5002251;28;20431;-77
2021/03/19 06:42:10;;;;;;;91.50;85.30;;;;;;;;;;5006769;28;20038;-80
2021/03/19 06:44:35;;;;;;;80.93;75.13;;;;;;;;;;4997132;28;20030;-82
2021/03/19 06:47:04;;;;;;;86.68;80.78;;;;;;;;;;5003619;28;20036;-81
2021/03/19 06:49:44;;;;;;;83.85;78.10;;;;;;;;;;5003560;28;20030;-81
2021/03/19 06:52:16;;;;;;;87.93;81.88;;;;;;;;;;4996206;28;20034;-82
2021/03/19 06:54:55;;;;;;;81.68;75.68;;;;;;;;;;5005517;28;20026;-82
2021/03/19 06:57:22;;;;;;;80.65;74.95;;;;;;;;;;5005494;28;20033;-82
2021/03/19 06:59:58;;;;;;;74.47;69.25;;;;;;;;;;5002932;28;20766;-80
2021/03/19 07:02:42;;;;;;;77.10;71.32;;;;;;;;;;4997962;28;20496;-82
2021/03/19 07:05:23;;;;;;;70.63;65.68;;;;;;;;;;4998721;28;20071;-81
2021/03/19 07:08:04;;;;;;;69.90;65.05;;;;;;;;;;5004719;28;20634;-81
2021/03/19 07:10:48;;;;;;;68.18;63.30;;;;;;;;;;5005969;28;20037;-78
2021/03/19 07:13:13;;;;;;;67.70;62.60;;;;;;;;;;5000231;28;20073;-72
2021/03/19 07:15:41;;;;;;;68.10;63.40;;;;;;;;;;5001897;28;20021;-74
2021/03/19 07:18:32;;;;;;;65.47;60.00;;;;;;;;;;5002510;28;20062;-77
2021/03/19 07:21:27;;;;;;;1999.90;999.90;;;;;;;;;;5002773;28;20667;-82
2021/03/19 07:24:11;;;;;;;62.65;58.50;;;;;;;;;;5001677;28;20485;-82
2021/03/19 07:26:38;;;;;;;1999.90;999.90;;;;;;;;;;4993393;28;20081;-82
2021/03/19 07:29:16;;;;;;;1999.90;999.90;;;;;;;;;;4992704;28;20029;-82
2021/03/19 07:31:52;;;;;;;1999.90;999.90;;;;;;;;;;5005448;28;20609;-84
2021/03/19 07:34:24;;;;;;;1999.90;999.90;;;;;;;;;;4995970;28;20026;-83
2021/03/19 07:37:13;;;;;;;1999.90;999.90;;;;;;;;;;5000359;28;20092;-80
2021/03/19 07:39:50;;;;;;;1999.90;999.90;;;;;;;;;;5005148;28;20034;-81
2021/03/19 07:42:21;;;;;;;1999.90;999.90;;;;;;;;;;5006778;28;20034;-80
2021/03/19 07:44:49;;;;;;;1999.90;999.90;;;;;;;;;;5000070;28;20045;-81
2021/03/19 07:47:24;;;;;;;1999.90;999.90;;;;;;;;;;5004518;28;20088;-81
2021/03/19 07:49:49;;;;;;;1999.90;999.90;;;;;;;;;;4996481;28;20547;-81
2021/03/19 07:52:40;;;;;;;1999.90;999.90;;;;;;;;;;5000752;28;20049;-82
2021/03/19 07:55:06;;;;;;;1999.90;999.90;;;;;;;;;;4999556;28;20389;-82
2021/03/19 07:57:37;;;;;;;1999.90;999.90;;;;;;;;;;4998960;28;20472;-81
2021/03/19 08:00:12;;;;;;;1999.90;999.90;;;;;;;;;;5000712;28;20388;-82
2021/03/19 08:02:47;;;;;;;1999.90;999.90;;;;;;;;;;5004281;28;20418;-83
2021/03/19 08:05:16;;;;;;;1999.90;999.90;;;;;;;;;;5009793;28;20183;-82
2021/03/19 08:08:01;;;;;;;1999.90;999.90;;;;;;;;;;5006100;28;20124;-82
2021/03/19 08:10:30;;;;;;;1999.90;999.90;;;;;;;;;;4996996;28;20038;-82
2021/03/19 08:13:04;;;;;;;1999.90;999.90;;;;;;;;;;4998276;28;20034;-83
2021/03/19 08:15:33;;;;;;;1999.90;999.90;;;;;;;;;;5001321;28;20552;-83
2021/03/19 08:18:02;;;;;;;1999.90;999.90;;;;;;;;;;5000883;28;20041;-82
2021/03/19 08:20:39;;;;;;;1999.90;999.90;;;;;;;;;;5005197;28;20042;-83
2021/03/19 08:23:33;;;;;;;1999.90;999.90;;;;;;;;;;5005350;28;20026;-81
2021/03/19 08:25:59;;;;;;;1999.90;999.90;;;;;;;;;;5012075;28;20041;-82
2021/03/19 08:28:35;;;;;;;1999.90;999.90;;;;;;;;;;5008915;28;20495;-82
2021/03/19 08:31:00;;;;;;;1999.90;999.90;;;;;;;;;;5007160;28;20026;-82
2021/03/19 08:33:38;;;;;;;1999.90;999.90;;;;;;;;;;5003863;28;20037;-82
2021/03/19 08:36:03;;;;;;;1999.90;999.90;;;;;;;;;;5021966;28;20081;-82
2021/03/19 08:38:50;;;;;;;1999.90;999.90;;;;;;;;;;5010203;28;20041;-81
2021/03/19 08:41:18;;;;;;;1999.90;999.90;;;;;;;;;;4991179;28;20049;-82
2021/03/19 08:43:59;;;;;;;1999.90;999.90;;;;;;;;;;5013488;28;20030;-81
2021/03/19 08:46:33;;;;;;;1999.90;999.90;;;;;;;;;;5008470;28;20096;-82
2021/03/19 08:49:00;;;;;;;1999.90;999.90;;;;;;;;;;5009899;28;20025;-82
2021/03/19 08:51:27;;;;;;;1999.90;999.90;;;;;;;;;;5005213;28;20084;-82
2021/03/19 08:54:11;;;;;;;1999.90;999.90;;;;;;;;;;4999419;28;20042;-83
2021/03/19 08:56:37;;;;;;;1999.90;999.90;;;;;;;;;;5007083;28;20123;-82
2021/03/19 08:59:03;;;;;;;1999.90;999.90;;;;;;;;;;4991214;28;20153;-81
2021/03/19 09:01:47;;;;;;;1999.90;999.90;;;;;;;;;;5004356;28;20089;-82
2021/03/19 09:04:16;;;;;;;1999.90;999.90;;;;;;;;;;5008395;28;20030;-81
2021/03/19 09:07:00;;;;;;;1999.90;999.90;;;;;;;;;;5009197;28;20041;-84
2021/03/19 09:09:33;;;;;;;1999.90;999.90;;;;;;;;;;5000724;28;20041;-83
2021/03/19 09:12:00;;;;;;;1999.90;999.90;;;;;;;;;;5004410;28;20042;-82
2021/03/19 09:14:31;;;;;;;1999.90;999.90;;;;;;;;;;5003982;28;20085;-83
2021/03/19 09:16:57;;;;;;;1999.90;999.90;;;;;;;;;;5006850;28;20030;-82
2021/03/19 09:19:28;;;;;;;1999.90;999.90;;;;;;;;;;5003794;28;20036;-83
2021/03/19 09:21:55;;;;;;;1999.90;999.90;;;;;;;;;;5002412;28;20046;-83
2021/03/19 09:24:24;;;;;;;1999.90;999.90;;;;;;;;;;5003353;28;20057;-84
2021/03/19 09:26:54;;;;;;;1999.90;999.90;;;;;;;;;;5006226;28;20451;-84
2021/03/19 09:29:20;;;;;;;1999.90;999.90;;;;;;;;;;5006313;28;20041;-84
2021/03/19 09:31:50;;;;;;;1999.90;999.90;;;;;;;;;;5002342;28;20022;-82
2021/03/19 09:34:17;;;;;;;1999.90;999.90;;;;;;;;;;5003858;28;20388;-82
2021/03/19 09:37:04;;;;;;;1999.90;999.90;;;;;;;;;;5007598;28;20026;-82
2021/03/19 09:39:48;;;;;;;1999.90;999.90;;;;;;;;;;4999756;28;20025;-82
2021/03/19 09:42:20;;;;;;;1999.90;999.90;;;;;;;;;;5002367;28;20034;-83
2021/03/19 09:44:48;;;;;;;1999.90;999.90;;;;;;;;;;5008181;28;20036;-83
2021/03/19 09:47:14;;;;;;;1999.90;999.90;;;;;;;;;;5005631;28;20181;-82
2021/03/19 09:49:40;;;;;;;1999.90;999.90;;;;;;;;;;5004613;28;20370;-82
2021/03/19 09:52:12;;;;;;;1999.90;999.90;;;;;;;;;;4998559;28;20037;-82
2021/03/19 09:54:38;;;;;;;1999.90;999.90;;;;;;;;;;4994366;28;20041;-82
2021/03/19 09:57:10;;;;;;;1999.90;999.90;;;;;;;;;;5004353;28;20014;-80
2021/03/19 09:59:36;;;;;;;1999.90;999.90;;;;;;;;;;4993976;28;20029;-82
2021/03/19 10:02:03;;;;;;;1999.90;999.90;;;;;;;;;;4999916;28;20109;-80
2021/03/19 10:04:29;;;;;;;1999.90;999.90;;;;;;;;;;5001777;28;20021;-82
2021/03/19 10:06:54;;;;;;;1999.90;999.90;;;;;;;;;;5001332;28;20378;-81
2021/03/19 10:09:21;;;;;;;1999.90;999.90;;;;;;;;;;5000363;28;20049;-82
2021/03/19 10:11:50;;;;;;;1999.90;999.90;;;;;;;;;;5003762;28;20024;-82
2021/03/19 10:14:21;;;;;;;1999.90;999.90;;;;;;;;;;5006672;28;20032;-82
2021/03/19 10:16:46;;;;;;;1999.90;999.90;;;;;;;;;;5005545;28;20045;-82
2021/03/19 10:19:14;;;;;;;1999.90;999.90;;;;;;;;;;5004909;28;20054;-81
2021/03/19 10:21:44;;;;;;;1999.90;999.90;;;;;;;;;;5004742;28;20030;-82
2021/03/19 10:24:10;;;;;;;1999.90;999.90;;;;;;;;;;5000926;28;20036;-81
2021/03/19 10:26:42;;;;;;;1999.90;999.90;;;;;;;;;;5003081;28;20026;-80
2021/03/19 10:29:12;;;;;;;1999.90;999.90;;;;;;;;;;5000577;28;20026;-80
2021/03/19 10:31:54;;;;;;;1999.90;999.90;;;;;;;;;;5000453;28;20045;-80
2021/03/19 10:34:30;;;;;;;1999.90;999.90;;;;;;;;;;5008034;28;20041;-80
2021/03/19 10:36:55;;;;;;;;;;;;;;;;;;5003168;28;20457;-80
2021/03/19 10:39:39;;;;;;;1999.90;999.90;;;;;;;;;;5005440;28;19981;-79
2021/03/19 10:42:07;;;;;;;1999.90;999.90;;;;;;;;;;5002285;28;20075;-81
2021/03/19 10:44:45;;;;;;;1999.90;999.90;;;;;;;;;;5001579;28;20026;-80
2021/03/19 10:47:18;;;;;;;1999.90;999.90;;;;;;;;;;4998169;28;20506;-80
2021/03/19 10:49:51;;;;;;;1999.90;999.90;;;;;;;;;;5005733;28;20474;-85
2021/03/19 10:52:37;;;;;;;1999.90;999.90;;;;;;;;;;5003419;28;20041;-83
2021/03/19 10:55:07;;;;;;;1999.90;999.90;;;;;;;;;;5004533;28;20128;-83
2021/03/19 10:57:35;;;;;;;1999.90;999.90;;;;;;;;;;4999675;28;20061;-82
2021/03/19 11:00:00;;;;;;;1999.90;999.90;;;;;;;;;;5008678;28;20103;-82
2021/03/19 11:02:28;;;;;;;1999.90;999.90;;;;;;;;;;4999274;28;20064;-82
2021/03/19 11:04:58;;;;;;;1999.90;999.90;;;;;;;;;;5004661;28;20022;-79
2021/03/19 11:07:26;;;;;;;1999.90;999.90;;;;;;;;;;5000503;28;20041;-80
2021/03/19 11:09:58;;;;;;;1999.90;999.90;;;;;;;;;;5001229;28;20110;-80
2021/03/19 11:12:30;;;;;;;1999.90;999.90;;;;;;;;;;4997463;28;20034;-80
2021/03/19 11:14:57;;;;;;;1999.90;999.90;;;;;;;;;;5001235;28;20038;-81
2021/03/19 11:17:22;;;;;;;1999.90;999.90;;;;;;;;;;5001213;28;20111;-80
2021/03/19 11:19:58;;;;;;;1999.90;999.90;;;;;;;;;;5003904;28;20095;-80
2021/03/19 11:22:31;;;;;;;1999.90;999.90;;;;;;;;;;4996325;28;20038;-80
2021/03/19 11:25:08;;;;;;;1999.90;999.90;;;;;;;;;;5000476;28;20500;-80
2021/03/19 11:27:38;;;;;;;1999.90;999.90;;;;;;;;;;4999062;28;20035;-79
2021/03/19 11:30:12;;;;;;;1999.90;999.90;;;;;;;;;;5002588;28;20495;-80
2021/03/19 11:32:37;;;;;;;1999.90;999.90;;;;;;;;;;5004056;28;20041;-80
2021/03/19 11:35:18;;;;;;;1999.90;999.90;;;;;;;;;;5002747;28;20030;-80
2021/03/19 11:37:46;;;;;;;1999.90;999.90;;;;;;;;;;5001896;28;20064;-81
2021/03/19 11:40:14;;;;;;;1999.90;999.90;;;;;;;;;;5016495;28;20021;-79
2021/03/19 11:42:41;;;;;;;1999.90;999.90;;;;;;;;;;4998745;28;20473;-80
2021/03/19 11:45:11;;;;;;;1999.90;999.90;;;;;;;;;;5019847;28;20018;-80
2021/03/19 11:47:41;;;;;;;1999.90;999.90;;;;;;;;;;5016942;28;20042;-80
2021/03/19 11:50:22;;;;;;;1999.90;999.90;;;;;;;;;;4998600;28;20014;-80
2021/03/19 11:52:49;;;;;;;1999.90;999.90;;;;;;;;;;5004358;28;20038;-80
2021/03/19 11:55:16;;;;;;;1999.90;999.90;;;;;;;;;;5005531;28;20472;-80
2021/03/19 11:57:42;;;;;;;1999.90;999.90;;;;;;;;;;4997325;28;20030;-80
2021/03/19 12:00:07;;;;;;;1999.90;999.90;;;;;;;;;;5002805;28;20072;-79
2021/03/19 12:02:36;;;;;;;1999.90;999.90;;;;;;;;;;5007404;28;20038;-81
2021/03/19 12:05:01;;;;;;;1999.90;999.90;;;;;;;;;;5010518;28;20048;-80
2021/03/19 12:07:26;;;;;;;1999.90;999.90;;;;;;;;;;5004455;28;20490;-80
2021/03/19 12:09:52;;;;;;;1999.90;999.90;;;;;;;;;;4995783;28;20041;-79
2021/03/19 12:12:20;;;;;;;1999.90;999.90;;;;;;;;;;5003884;28;20504;-75
2021/03/19 12:14:46;;;;;;;1999.90;999.90;;;;;;;;;;4998751;28;20030;-82
2021/03/19 12:17:12;;;;;;;1999.90;999.90;;;;;;;;;;5006632;28;20034;-82
2021/03/19 12:19:38;;;;;;;1999.90;999.90;;;;;;;;;;5011748;28;20037;-82
2021/03/19 12:22:03;;;;;;;1999.90;999.90;;;;;;;;;;5008530;28;20405;-79
2021/03/19 12:24:29;;;;;;;1999.90;999.90;;;;;;;;;;5005523;28;20033;-84
2021/03/19 12:26:54;;;;;;;1999.90;999.90;;;;;;;;;;5006152;28;20056;-84
2021/03/19 12:29:20;;;;;;;1999.90;999.90;;;;;;;;;;5006666;28;20504;-82
2021/03/19 12:31:45;;;;;;;1999.90;999.90;;;;;;;;;;5005451;28;20037;-82
2021/03/19 12:34:10;;;;;;;1999.90;999.90;;;;;;;;;;5007896;28;20578;-83
2021/03/19 12:36:36;;;;;;;1999.90;999.90;;;;;;;;;;5009171;28;20025;-82
2021/03/19 12:39:03;;;;;;;1999.90;999.90;;;;;;;;;;5006359;28;20026;-82
2021/03/19 12:41:28;;;;;;;1999.90;999.90;;;;;;;;;;5005167;28;20114;-82
2021/03/19 12:43:53;;;;;;;1999.90;999.90;;;;;;;;;;5007484;28;20109;-82
2021/03/19 12:46:19;;;;;;;1999.90;999.90;;;;;;;;;;5005239;28;20121;-82
2021/03/19 12:48:44;;;;;;;1999.90;999.90;;;;;;;;;;5001960;28;20058;-81
2021/03/19 12:51:09;;;;;;;1999.90;999.90;;;;;;;;;;5002962;28;20026;-81
2021/03/19 12:53:35;;;;;;;1999.90;999.90;;;;;;;;;;5002034;28;20029;-81
2021/03/19 12:56:04;;;;;;;1999.90;999.90;;;;;;;;;;5001206;28;20080;-82
2021/03/19 12:58:29;;;;;;;1999.90;999.90;;;;;;;;;;5004763;28;20030;-81
2021/03/19 13:00:55;;;;;;;1999.90;999.90;;;;;;;;;;5001260;28;20022;-81
2021/03/19 13:03:20;;;;;;;1999.90;999.90;;;;;;;;;;4999277;28;20026;-78
2021/03/19 13:05:45;;;;;;;1999.90;999.90;;;;;;;;;;5005809;28;20034;-79
2021/03/19 13:08:11;;;;;;;1999.90;999.90;;;;;;;;;;4997718;28;20461;-78
2021/03/19 13:10:37;;;;;;;1999.90;999.90;;;;;;;;;;5006664;28;20416;-78
2021/03/19 13:13:02;;;;;;;1999.90;999.90;;;;;;;;;;5005738;28;20022;-78
2021/03/19 13:15:29;;;;;;;1999.90;999.90;;;;;;;;;;5002394;28;20045;-78
2021/03/19 13:17:54;;;;;;;1999.90;999.90;;;;;;;;;;5008093;28;20029;-78
2021/03/19 13:20:21;;;;;;;1999.90;999.90;;;;;;;;;;5003735;28;20042;-79
2021/03/19 13:22:46;;;;;;;1999.90;999.90;;;;;;;;;;5002624;28;20050;-78
2021/03/19 13:25:14;;;;;;;1999.90;999.90;;;;;;;;;;5003180;28;20065;-78
2021/03/19 13:27:39;;;;;;;1999.90;999.90;;;;;;;;;;4997606;28;20100;-77
2021/03/19 13:30:08;;;;;;;1999.90;999.90;;;;;;;;;;5003940;28;20026;-80
2021/03/19 13:32:34;;;;;;;1999.90;999.90;;;;;;;;;;5003892;28;20109;-81
2021/03/19 13:34:59;;;;;;;1999.90;999.90;;;;;;;;;;4999537;28;20136;-80
2021/03/19 13:37:25;;;;;;;1999.90;999.90;;;;;;;;;;5002886;28;20078;-81
2021/03/19 13:39:50;;;;;;;1999.90;999.90;;;;;;;;;;5007221;28;20033;-81
2021/03/19 13:42:15;;;;;;;1999.90;999.90;;;;;;;;;;5001428;28;20506;-80
2021/03/19 13:44:41;;;;;;;1999.90;999.90;;;;;;;;;;5001773;28;20484;-82
2021/03/19 13:47:06;;;;;;;1999.90;999.90;;;;;;;;;;5007716;28;20030;-81
2021/03/19 13:49:32;;;;;;;1999.90;999.90;;;;;;;;;;5007009;28;20446;-81
2021/03/19 13:51:58;;;;;;;1999.90;999.90;;;;;;;;;;5008300;28;20028;-82
2021/03/19 13:54:23;;;;;;;1999.90;999.90;;;;;;;;;;5005134;28;20042;-82
2021/03/19 13:56:49;;;;;;;1999.90;999.90;;;;;;;;;;5005194;28;20022;-83
2021/03/19 13:59:15;;;;;;;1999.90;999.90;;;;;;;;;;5001392;28;20030;-82
2021/03/19 14:01:40;;;;;;;1999.90;999.90;;;;;;;;;;5002074;28;20491;-83
2021/03/19 14:04:08;;;;;;;1999.90;999.90;;;;;;;;;;5006725;28;20033;-82